createdAt,value
2019-05-21T00:00:14.832Z,99716.97
2019-05-21T00:02:44.707Z,99727.83
2019-05-21T00:05:15.670Z,99717.43
2019-05-21T00:07:45.528Z,99721.70
2019-05-21T00:10:16.009Z,99726.02
2019-05-21T00:12:46.308Z,99727.75
2019-05-21T00:15:16.570Z,99711.86
2019-05-21T00:17:46.822Z,99727.63
2019-05-21T00:20:18.061Z,99724.52
2019-05-21T00:22:48.201Z,99721.41
2019-05-21T00:25:18.441Z,99721.39
2019-05-21T00:27:48.641Z,99719.40
2019-05-21T00:30:54.789Z,99722.17
2019-05-21T00:34:00.682Z,99727.34
2019-05-21T00:37:08.293Z,99722.10
2019-05-21T00:40:15.061Z,99727.03
2019-05-21T00:42:45.851Z,99737.33
2019-05-21T00:45:15.914Z,99735.36
2019-05-21T00:47:45.959Z,99739.09
2019-05-21T00:50:16.369Z,99747.19
2019-05-21T00:52:46.736Z,99739.95
2019-05-21T00:55:16.987Z,99743.30
2019-05-21T00:57:47.921Z,99744.72
2019-05-21T01:00:18.918Z,99749.34
2019-05-21T01:02:48.771Z,99742.67
2019-05-21T01:05:18.820Z,99751.58
2019-05-21T01:07:48.814Z,99747.19
2019-05-21T01:10:19.114Z,99754.04
2019-05-21T01:12:49.021Z,99754.50
2019-05-21T01:15:18.972Z,99752.50
2019-05-21T01:17:49.287Z,99751.20
2019-05-21T01:20:20.557Z,99747.16
2019-05-21T01:22:50.439Z,99750.86
2019-05-21T01:25:20.495Z,99749.81
2019-05-21T01:27:50.429Z,99746.73
2019-05-21T01:30:20.366Z,99751.08
2019-05-21T01:32:50.204Z,99752.23
2019-05-21T01:35:19.985Z,99759.36
2019-05-21T01:37:49.823Z,99755.59
2019-05-21T01:40:19.783Z,99761.87
2019-05-21T01:42:49.763Z,99756.09
2019-05-21T01:45:19.775Z,99750.36
2019-05-21T01:47:49.623Z,99747.97
2019-05-21T01:50:19.690Z,99749.85
2019-05-21T01:52:49.807Z,99755.39
2019-05-21T01:55:19.700Z,99747.00
2019-05-21T01:57:49.761Z,99751.58
2019-05-21T02:00:19.900Z,99760.66
2019-05-21T02:02:50.074Z,99752.55
2019-05-21T02:05:32.735Z,99754.95
2019-05-21T02:07:51.971Z,99752.86
2019-05-21T02:10:22.285Z,99752.97
2019-05-21T02:12:52.174Z,99759.83
2019-05-21T02:15:22.209Z,99756.89
2019-05-21T02:17:52.080Z,99752.52
2019-05-21T02:20:22.822Z,99754.16
2019-05-21T02:22:52.819Z,99760.87
2019-05-21T02:25:23.205Z,99761.75
2019-05-21T02:27:53.733Z,99755.79
2019-05-21T02:30:24.535Z,99761.98
2019-05-21T02:32:54.719Z,99747.77
2019-05-21T02:35:24.662Z,99764.46
2019-05-21T02:37:54.566Z,99764.84
2019-05-21T02:40:25.194Z,99767.08
2019-05-21T02:42:55.066Z,99774.02
2019-05-21T02:45:26.068Z,99770.45
2019-05-21T02:47:56.307Z,99771.25
2019-05-21T02:50:26.696Z,99782.02
2019-05-21T02:52:56.686Z,99773.52
2019-05-21T02:55:26.834Z,99773.05
2019-05-21T02:57:56.760Z,99772.84
2019-05-21T03:00:40.130Z,99774.64
2019-05-21T03:03:11.054Z,99776.62
2019-05-21T03:05:41.028Z,99770.08
2019-05-21T03:08:11.086Z,99781.79
2019-05-21T03:10:41.192Z,99786.37
2019-05-21T03:13:11.083Z,99791.75
2019-05-21T03:15:41.039Z,99790.39
2019-05-21T03:18:10.954Z,99796.27
2019-05-21T03:20:40.930Z,99790.01
2019-05-21T03:23:12.663Z,99800.33
2019-05-21T03:25:42.517Z,99808.14
2019-05-21T03:28:12.647Z,99809.63
2019-05-21T03:30:42.679Z,99805.08
2019-05-21T03:33:12.701Z,99813.95
2019-05-21T03:35:42.639Z,99813.95
2019-05-21T03:38:12.546Z,99817.84
2019-05-21T03:40:42.492Z,99824.49
2019-05-21T03:43:12.455Z,99825.77
2019-05-21T03:45:42.764Z,99822.94
2019-05-21T03:48:12.676Z,99819.27
2019-05-21T03:50:42.544Z,99816.64
2019-05-21T03:53:12.584Z,99822.02
2019-05-21T03:55:42.785Z,99818.09
2019-05-21T03:58:14.384Z,99822.78
2019-05-21T04:00:44.280Z,99820.33
2019-05-21T04:03:14.209Z,99818.59
2019-05-21T04:05:44.167Z,99824.77
2019-05-21T04:08:14.226Z,99827.61
2019-05-21T04:10:44.171Z,99828.88
2019-05-21T04:13:14.309Z,99829.47
2019-05-21T04:15:51.314Z,99833.45
2019-05-21T04:18:26.392Z,99832.56
2019-05-21T04:20:56.240Z,99841.66
2019-05-21T04:23:26.031Z,99838.31
2019-05-21T04:25:55.992Z,99832.94
2019-05-21T04:28:25.828Z,99839.35
2019-05-21T04:30:56.157Z,99852.80
2019-05-21T04:33:27.273Z,99852.21
2019-05-21T04:35:57.094Z,99858.77
2019-05-21T04:38:26.954Z,99857.33
2019-05-21T04:40:57.151Z,99862.70
2019-05-21T04:43:27.153Z,99862.20
2019-05-21T04:45:57.236Z,99860.30
2019-05-21T04:48:28.160Z,99865.04
2019-05-21T04:50:58.026Z,99863.39
2019-05-21T04:53:27.838Z,99858.91
2019-05-21T04:55:58.137Z,99858.81
2019-05-21T04:58:28.376Z,99866.31
2019-05-21T05:00:58.293Z,99863.98
2019-05-21T05:03:28.255Z,99867.48
2019-05-21T05:05:58.321Z,99865.72
2019-05-21T05:08:28.610Z,99868.25
2019-05-21T05:10:58.610Z,99863.17
2019-05-21T05:13:28.572Z,99859.07
2019-05-21T05:15:58.486Z,99863.98
2019-05-21T05:18:28.373Z,99870.23
2019-05-21T05:20:58.192Z,99881.14
2019-05-21T05:23:28.486Z,99882.62
2019-05-21T05:25:59.759Z,99889.44
2019-05-21T05:28:29.731Z,99882.59
2019-05-21T05:31:01.172Z,99887.06
2019-05-21T05:33:31.147Z,99894.69
2019-05-21T05:36:01.367Z,99891.77
2019-05-21T05:38:31.335Z,99892.87
2019-05-21T05:41:01.629Z,99895.02
2019-05-21T05:43:31.566Z,99898.16
2019-05-21T05:46:01.901Z,99899.51
2019-05-21T05:48:33.334Z,99906.15
2019-05-21T05:51:05.188Z,99902.94
2019-05-21T05:53:54.357Z,99903.78
2019-05-21T05:56:24.370Z,99900.27
2019-05-21T05:58:54.657Z,99904.29
2019-05-21T06:01:25.161Z,99907.13
2019-05-21T06:03:55.297Z,99910.25
2019-05-21T06:06:25.196Z,99914.14
2019-05-21T06:08:55.177Z,99920.99
2019-05-21T06:11:25.495Z,99917.48
2019-05-21T06:13:55.544Z,99925.48
2019-05-21T06:16:25.435Z,99924.53
2019-05-21T06:18:55.625Z,99927.45
2019-05-21T06:21:25.841Z,99927.63
2019-05-21T06:23:55.763Z,99925.01
2019-05-21T06:26:26.090Z,99930.17
2019-05-21T06:28:55.908Z,99934.95
2019-05-21T06:31:25.885Z,99932.50
2019-05-21T06:33:55.925Z,99933.94
2019-05-21T06:36:26.438Z,99937.66
2019-05-21T06:38:56.501Z,99930.64
2019-05-21T06:41:26.665Z,99936.09
2019-05-21T06:43:56.868Z,99942.36
2019-05-21T06:46:26.805Z,99947.05
2019-05-21T06:48:57.001Z,99950.86
2019-05-21T06:51:27.329Z,99953.09
2019-05-21T06:53:57.272Z,99959.67
2019-05-21T06:56:27.206Z,99968.54
2019-05-21T06:58:57.167Z,99962.39
2019-05-21T07:01:29.218Z,99964.64
2019-05-21T07:03:58.974Z,99972.76
2019-05-21T07:06:29.138Z,99979.38
2019-05-21T07:08:59.465Z,99976.42
2019-05-21T07:11:29.491Z,99984.70
2019-05-21T07:13:59.357Z,99986.02
2019-05-21T07:16:30.194Z,99985.20
2019-05-21T07:19:00.027Z,99987.73
2019-05-21T07:21:30.365Z,99981.22
2019-05-21T07:24:00.384Z,99992.94
2019-05-21T07:26:30.442Z,99993.44
2019-05-21T07:29:00.390Z,100001.34
2019-05-21T07:31:30.723Z,100003.08
2019-05-21T07:34:00.891Z,100009.13
2019-05-21T07:36:32.370Z,100007.38
2019-05-21T07:39:02.159Z,100012.36
2019-05-21T07:41:33.194Z,100019.09
2019-05-21T07:44:03.711Z,100019.67
2019-05-21T07:46:33.830Z,100023.77
2019-05-21T07:49:03.782Z,100025.15
2019-05-21T07:51:33.596Z,100035.97
2019-05-21T07:54:03.448Z,100031.98
2019-05-21T07:56:33.313Z,100033.34
2019-05-21T07:59:03.589Z,100035.97
2019-05-21T08:01:33.858Z,100036.35
2019-05-21T08:04:03.786Z,100040.27
2019-05-21T08:06:33.771Z,100048.27
2019-05-21T08:09:13.488Z,100050.98
2019-05-21T08:11:36.602Z,100051.78
2019-05-21T08:14:07.244Z,100053.04
2019-05-21T08:16:37.344Z,100052.84
2019-05-21T08:19:07.217Z,100056.55
2019-05-21T08:21:37.013Z,100061.31
2019-05-21T08:24:06.990Z,100057.22
2019-05-21T08:26:36.955Z,100057.34
2019-05-21T08:29:07.447Z,100053.42
2019-05-21T08:31:37.400Z,100059.30
2019-05-21T08:34:07.631Z,100057.53
2019-05-21T08:36:37.508Z,100065.36
2019-05-21T08:39:08.126Z,100066.03
2019-05-21T08:41:38.287Z,100066.73
2019-05-21T08:44:08.315Z,100061.94
2019-05-21T08:46:38.652Z,100073.65
2019-05-21T08:49:08.675Z,100072.09
2019-05-21T08:51:39.837Z,100072.47
2019-05-21T08:54:09.991Z,100068.95
2019-05-21T08:56:40.247Z,100072.47
2019-05-21T08:59:10.512Z,100082.23
2019-05-21T09:01:40.363Z,100077.66
2019-05-21T09:04:10.606Z,100081.06
2019-05-21T09:06:40.915Z,100080.79
2019-05-21T09:09:11.014Z,100083.50
2019-05-21T09:11:40.954Z,100086.23
2019-05-21T09:14:10.870Z,100089.37
2019-05-21T09:16:40.801Z,100089.06
2019-05-21T09:19:10.709Z,100093.27
2019-05-21T09:21:41.388Z,100097.47
2019-05-21T09:24:11.881Z,100095.89
2019-05-21T09:26:41.841Z,100099.62
2019-05-21T09:29:11.916Z,100100.68
2019-05-21T09:31:41.866Z,100099.41
2019-05-21T09:34:11.769Z,100104.00
2019-05-21T09:36:41.651Z,100111.16
2019-05-21T09:39:11.776Z,100109.47
2019-05-21T09:41:41.650Z,100114.37
2019-05-21T09:44:11.592Z,100120.33
2019-05-21T09:46:41.567Z,100121.19
2019-05-21T09:49:11.401Z,100115.05
2019-05-21T09:51:44.234Z,100123.73
2019-05-21T09:54:14.194Z,100124.03
2019-05-21T09:56:44.045Z,100132.25
2019-05-21T09:59:50.533Z,100135.95
2019-05-21T10:02:25.577Z,100143.55
2019-05-21T10:04:55.821Z,100143.27
2019-05-21T10:07:38.919Z,100145.41
2019-05-21T10:09:57.302Z,100147.73
2019-05-21T10:12:27.522Z,100153.31
2019-05-21T10:14:57.329Z,100156.23
2019-05-21T10:17:27.514Z,100153.28
2019-05-21T10:19:58.973Z,100162.20
2019-05-21T10:22:28.963Z,100165.78
2019-05-21T10:24:59.080Z,100160.80
2019-05-21T10:27:29.018Z,100165.76
2019-05-21T10:29:59.140Z,100166.14
2019-05-21T10:32:29.220Z,100168.49
2019-05-21T10:34:59.254Z,100169.85
2019-05-21T10:37:30.809Z,100174.06
2019-05-21T10:40:01.275Z,100180.82
2019-05-21T10:42:31.223Z,100179.84
2019-05-21T10:45:01.230Z,100185.71
2019-05-21T10:47:32.483Z,100186.66
2019-05-21T10:50:02.924Z,100186.95
2019-05-21T10:52:32.972Z,100193.10
2019-05-21T10:55:04.539Z,100194.78
2019-05-21T10:57:34.496Z,100189.61
2019-05-21T11:00:06.537Z,100189.61
2019-05-21T11:02:45.893Z,100200.27
2019-05-21T11:05:20.107Z,100202.58
2019-05-21T11:07:49.952Z,100209.84
2019-05-21T11:10:20.251Z,100217.17
2019-05-21T11:12:50.165Z,100214.92
2019-05-21T11:15:21.133Z,100219.20
2019-05-21T11:18:09.067Z,100223.70
2019-05-21T11:20:22.981Z,100228.52
2019-05-21T11:22:53.252Z,100230.75
2019-05-21T11:25:23.281Z,100229.30
2019-05-21T11:27:53.153Z,100226.31
2019-05-21T11:30:23.324Z,100231.70
2019-05-21T11:32:54.417Z,100232.78
2019-05-21T11:35:24.496Z,100235.23
2019-05-21T11:37:54.362Z,100239.89
2019-05-21T11:40:25.763Z,100232.85
2019-05-21T11:42:55.647Z,100240.18
2019-05-21T11:45:32.136Z,100240.08
2019-05-21T11:47:57.382Z,100243.73
2019-05-21T11:50:27.271Z,100246.65
2019-05-21T11:52:57.367Z,100253.38
2019-05-21T11:55:27.383Z,100249.48
2019-05-21T11:57:57.987Z,100257.05
2019-05-21T12:00:29.125Z,100257.34
2019-05-21T12:02:59.185Z,100259.41
2019-05-21T12:05:29.298Z,100263.11
2019-05-21T12:07:59.441Z,100262.36
2019-05-21T12:10:30.660Z,100268.70
2019-05-21T12:13:00.730Z,100270.89
2019-05-21T12:15:30.727Z,100261.59
2019-05-21T12:18:00.608Z,100272.52
2019-05-21T12:20:36.866Z,100271.47
2019-05-21T12:23:02.152Z,100266.89
2019-05-21T12:25:32.032Z,100272.26
2019-05-21T12:28:01.810Z,100276.83
2019-05-21T12:30:33.074Z,100276.92
2019-05-21T12:33:02.982Z,100279.66
2019-05-21T12:35:32.820Z,100276.83
2019-05-21T12:38:02.767Z,100286.56
2019-05-21T12:40:32.684Z,100291.36
2019-05-21T12:43:02.949Z,100286.16
2019-05-21T12:45:32.965Z,100286.38
2019-05-21T12:48:03.193Z,100288.78
2019-05-21T12:50:33.468Z,100290.16
2019-05-21T12:53:03.695Z,100297.57
2019-05-21T12:55:33.648Z,100297.48
2019-05-21T12:58:03.640Z,100299.44
2019-05-21T13:00:36.652Z,100297.10
2019-05-21T13:03:06.569Z,100302.88
2019-05-21T13:05:36.479Z,100308.63
2019-05-21T13:08:06.750Z,100303.06
2019-05-21T13:10:37.644Z,100310.41
2019-05-21T13:13:08.219Z,100310.56
2019-05-21T13:15:38.086Z,100307.75
2019-05-21T13:18:08.582Z,100315.51
2019-05-21T13:20:38.491Z,100314.14
2019-05-21T13:23:08.735Z,100286.73
2019-05-21T13:25:38.564Z,100318.21
2019-05-21T13:28:08.514Z,100331.04
2019-05-21T13:30:38.467Z,100325.83
2019-05-21T13:33:08.456Z,100328.59
2019-05-21T13:35:38.370Z,100330.05
2019-05-21T13:38:13.161Z,100334.37
2019-05-21T13:40:40.423Z,100338.17
2019-05-21T13:43:10.240Z,100341.01
2019-05-21T13:45:40.207Z,100343.80
2019-05-21T13:48:10.271Z,100347.48
2019-05-21T13:50:40.895Z,100347.05
2019-05-21T13:53:11.009Z,100355.94
2019-05-21T13:55:40.844Z,100345.30
2019-05-21T13:58:10.796Z,100347.36
2019-05-21T14:00:46.780Z,100361.11
2019-05-21T14:03:17.950Z,100343.52
2019-05-21T14:05:47.878Z,100350.44
2019-05-21T14:08:18.010Z,100348.41
2019-05-21T14:10:48.098Z,100351.01
2019-05-21T14:13:18.182Z,100353.36
2019-05-21T14:15:48.500Z,100357.95
2019-05-21T14:18:18.535Z,100361.55
2019-05-21T14:20:49.048Z,100354.91
2019-05-21T14:23:18.860Z,100363.66
2019-05-21T14:25:50.900Z,100380.16
2019-05-21T14:28:21.364Z,100362.91
2019-05-21T14:30:52.178Z,100376.76
2019-05-21T14:33:22.247Z,100380.52
2019-05-21T14:35:52.164Z,100379.70
2019-05-21T14:38:22.112Z,100380.06
2019-05-21T14:40:52.131Z,100375.80
2019-05-21T14:43:22.084Z,100383.89
2019-05-21T14:45:52.439Z,100380.16
2019-05-21T14:48:22.809Z,100383.69
2019-05-21T14:50:52.814Z,100380.46
2019-05-21T14:53:23.047Z,100382.63
2019-05-21T14:55:53.230Z,100383.13
2019-05-21T14:58:25.824Z,100378.00
2019-05-21T15:00:59.801Z,100374.71
2019-05-21T15:03:47.475Z,100375.19
2019-05-21T15:06:10.342Z,100380.36
2019-05-21T15:08:40.347Z,100375.80
2019-05-21T15:11:10.454Z,100372.93
2019-05-21T15:13:40.712Z,100378.56
2019-05-21T15:16:10.787Z,100374.56
2019-05-21T15:18:40.767Z,100377.09
2019-05-21T15:21:24.644Z,100382.09
2019-05-21T15:23:55.951Z,100377.02
2019-05-21T15:26:26.052Z,100377.62
2019-05-21T15:28:56.582Z,100375.67
2019-05-21T15:31:27.100Z,100369.55
2019-05-21T15:33:57.018Z,100336.70
2019-05-21T15:36:28.317Z,100375.59
2019-05-21T15:38:58.623Z,100374.13
2019-05-21T15:41:28.940Z,100375.36
2019-05-21T15:43:58.971Z,100378.98
2019-05-21T15:46:45.483Z,100373.25
2019-05-21T15:49:00.593Z,100380.91
2019-05-21T15:51:31.064Z,100376.63
2019-05-21T15:54:01.490Z,100372.53
2019-05-21T15:56:32.035Z,100374.51
2019-05-21T15:59:02.683Z,100373.05
2019-05-21T16:01:32.907Z,100380.38
2019-05-21T16:04:02.880Z,100383.19
2019-05-21T16:06:33.046Z,100380.92
2019-05-21T16:09:06.172Z,100382.80
2019-05-21T16:11:36.082Z,100388.27
2019-05-21T16:14:06.285Z,100391.50
2019-05-21T16:16:36.481Z,100391.12
2019-05-21T16:19:06.875Z,100387.71
2019-05-21T16:21:36.661Z,100395.74
2019-05-21T16:24:07.394Z,100392.73
2019-05-21T16:26:37.705Z,100396.41
2019-05-21T16:29:07.903Z,100390.86
2019-05-21T16:31:38.060Z,100400.14
2019-05-21T16:34:08.186Z,100408.81
2019-05-21T16:36:40.027Z,100399.25
2019-05-21T16:39:10.710Z,100393.69
2019-05-21T16:41:44.553Z,100390.28
2019-05-21T16:44:12.984Z,100394.50
2019-05-21T16:46:43.144Z,100395.28
2019-05-21T16:49:13.437Z,100392.95
2019-05-21T16:51:44.086Z,100401.56
2019-05-21T16:54:13.955Z,100401.45
2019-05-21T16:56:43.940Z,100418.58
2019-05-21T16:59:14.006Z,100410.46
2019-05-21T17:01:44.746Z,100423.09
2019-05-21T17:04:15.585Z,100428.66
2019-05-21T17:06:45.905Z,100419.44
2019-05-21T17:09:16.350Z,100411.80
2019-05-21T17:11:59.103Z,100416.22
2019-05-21T17:14:18.974Z,100420.53
2019-05-21T17:16:49.067Z,100422.31
2019-05-21T17:19:19.041Z,100423.18
2019-05-21T17:21:49.819Z,100417.09
2019-05-21T17:24:20.141Z,100422.09
2019-05-21T17:26:50.042Z,100426.86
2019-05-21T17:29:20.196Z,100438.69
2019-05-21T17:31:50.260Z,100439.05
2019-05-21T17:34:20.553Z,100436.48
2019-05-21T17:36:50.567Z,100441.34
2019-05-21T17:39:20.973Z,100444.88
2019-05-21T17:41:51.807Z,100450.14
2019-05-21T17:44:24.922Z,100452.55
2019-05-21T17:46:54.962Z,100458.84
2019-05-21T17:49:25.205Z,100462.73
2019-05-21T17:51:55.270Z,100466.22
2019-05-21T17:54:25.235Z,100464.47
2019-05-21T17:56:57.058Z,100462.21
2019-05-21T17:59:27.369Z,100470.59
2019-05-21T18:01:57.384Z,100469.67
2019-05-21T18:04:29.404Z,100478.64
2019-05-21T18:06:59.816Z,100479.20
2019-05-21T18:09:29.786Z,100468.80
2019-05-21T18:12:00.252Z,100472.52
2019-05-21T18:14:30.805Z,100471.05
2019-05-21T18:17:00.765Z,100486.45
2019-05-21T18:19:31.442Z,100485.55
2019-05-21T18:22:01.861Z,100481.47
2019-05-21T18:24:31.741Z,100492.45
2019-05-21T18:27:01.777Z,100501.78
2019-05-21T18:29:32.229Z,100499.42
2019-05-21T18:32:02.239Z,100499.80
2019-05-21T18:34:32.828Z,100502.51
2019-05-21T18:37:03.270Z,100503.67
2019-05-21T18:39:34.430Z,100508.68
2019-05-21T18:42:04.985Z,100508.58
2019-05-21T18:44:35.225Z,100510.66
2019-05-21T18:47:06.419Z,100520.19
2019-05-21T18:49:36.688Z,100516.80
2019-05-21T18:52:06.893Z,100517.06
2019-05-21T18:54:36.906Z,100523.98
2019-05-21T18:57:08.706Z,100534.98
2019-05-21T18:59:38.668Z,100532.99
2019-05-21T19:02:10.232Z,100538.33
2019-05-21T19:04:40.917Z,100540.59
2019-05-21T19:07:11.460Z,100514.55
2019-05-21T19:09:41.453Z,100545.30
2019-05-21T19:12:11.492Z,100557.24
2019-05-21T19:14:44.916Z,100557.41
2019-05-21T19:17:14.903Z,100560.21
2019-05-21T19:19:46.133Z,100555.95
2019-05-21T19:22:16.255Z,100577.91
2019-05-21T19:24:46.306Z,100580.09
2019-05-21T19:27:19.269Z,100574.66
2019-05-21T19:29:49.559Z,100577.72
2019-05-21T19:32:19.581Z,100584.95
2019-05-21T19:34:49.543Z,100583.05
2019-05-21T19:37:19.507Z,100583.16
2019-05-21T19:39:49.576Z,100581.89
2019-05-21T19:42:19.694Z,100594.45
2019-05-21T19:44:49.700Z,100592.19
2019-05-21T19:47:19.622Z,100590.66
2019-05-21T19:49:49.593Z,100593.67
2019-05-21T19:52:19.961Z,100594.45
2019-05-21T19:54:49.973Z,100592.19
2019-05-21T19:57:22.255Z,100598.52
2019-05-21T19:59:52.405Z,100603.70
2019-05-21T20:02:23.691Z,100596.09
2019-05-21T20:04:54.733Z,100605.61
2019-05-21T20:07:26.198Z,100608.44
2019-05-21T20:09:57.153Z,100618.84
2019-05-21T20:12:27.737Z,100612.10
2019-05-21T20:14:58.133Z,100622.50
2019-05-21T20:17:28.534Z,100622.66
2019-05-21T20:19:59.147Z,100622.55
2019-05-21T20:22:30.653Z,100627.25
2019-05-21T20:25:01.261Z,100623.70
2019-05-21T20:27:32.367Z,100632.84
2019-05-21T20:30:12.279Z,100624.45
2019-05-21T20:32:36.627Z,100640.70
2019-05-21T20:35:08.208Z,100649.20
2019-05-21T20:37:40.376Z,100648.09
2019-05-21T20:40:13.703Z,100648.35
2019-05-21T20:42:47.379Z,100648.83
2019-05-21T20:45:19.195Z,100653.91
2019-05-21T20:47:51.102Z,100645.03
2019-05-21T20:50:22.687Z,100621.42
2019-05-21T20:52:53.738Z,100658.34
2019-05-21T20:55:23.872Z,100656.22
2019-05-21T20:57:55.517Z,100655.73
2019-05-21T21:00:30.307Z,100656.03
2019-05-21T21:03:00.640Z,100644.89
2019-05-21T21:05:31.056Z,100651.48
2019-05-21T21:08:01.388Z,100640.95
2019-05-21T21:10:32.016Z,100646.16
2019-05-21T21:13:02.445Z,100650.74
2019-05-21T21:15:32.664Z,100652.53
2019-05-21T21:18:03.552Z,100655.44
2019-05-21T21:20:34.218Z,100655.32
2019-05-21T21:23:05.117Z,100659.38
2019-05-21T21:25:35.590Z,100665.71
2019-05-21T21:28:06.350Z,100674.09
2019-05-21T21:30:37.377Z,100668.65
2019-05-21T21:33:08.496Z,100673.71
2019-05-21T21:35:38.588Z,100668.27
2019-05-21T21:38:11.490Z,100680.33
2019-05-21T21:40:41.638Z,100672.36
2019-05-21T21:43:12.273Z,100673.34
2019-05-21T21:45:43.044Z,100676.14
2019-05-21T21:48:15.002Z,100675.39
2019-05-21T21:50:50.908Z,100681.06
2019-05-21T21:53:21.458Z,100681.72
2019-05-21T21:55:52.601Z,100686.29
2019-05-21T21:58:23.062Z,100681.73
2019-05-21T22:01:21.823Z,100683.00
2019-05-21T22:03:52.581Z,100681.23
2019-05-21T22:06:23.795Z,100674.16
2019-05-21T22:08:54.670Z,100683.52
2019-05-21T22:11:25.085Z,100678.87
2019-05-21T22:13:56.210Z,100680.99
2019-05-21T22:16:27.446Z,100681.39
2019-05-21T22:18:57.498Z,100681.14
2019-05-21T22:21:28.013Z,100686.07
2019-05-21T22:23:58.400Z,100682.53
2019-05-21T22:26:29.380Z,100684.96
2019-05-21T22:28:59.559Z,100685.22
2019-05-21T22:31:29.593Z,100680.54
2019-05-21T22:34:00.059Z,100688.23
2019-05-21T22:36:30.582Z,100688.23
2019-05-21T22:39:00.487Z,100681.30
2019-05-21T22:41:31.993Z,100688.13
2019-05-21T22:44:02.515Z,100683.80
2019-05-21T22:46:32.946Z,100685.07
2019-05-21T22:49:03.681Z,100689.01
2019-05-21T22:51:33.870Z,100690.26
2019-05-21T22:54:03.786Z,100687.61
2019-05-21T22:56:33.641Z,100693.81
2019-05-21T22:59:06.109Z,100689.62
2019-05-21T23:01:37.600Z,100692.42
2019-05-21T23:04:08.200Z,100694.46
2019-05-21T23:06:38.259Z,100694.17
2019-05-21T23:09:09.086Z,100693.94
2019-05-21T23:11:39.036Z,100685.34
2019-05-21T23:14:09.023Z,100690.27
2019-05-21T23:16:39.306Z,100691.91
2019-05-21T23:19:11.597Z,100690.52
2019-05-21T23:21:44.288Z,100685.73
2019-05-21T23:24:19.020Z,100697.09
2019-05-21T23:26:49.251Z,100687.99
2019-05-21T23:29:19.602Z,100687.63
2019-05-21T23:31:49.782Z,100688.87
2019-05-21T23:34:20.709Z,100681.54
2019-05-21T23:36:51.462Z,100694.71
2019-05-21T23:39:23.211Z,100683.42
2019-05-21T23:41:53.517Z,100690.52
2019-05-21T23:44:24.148Z,100692.16
2019-05-21T23:46:54.478Z,100693.42
2019-05-21T23:49:24.314Z,100700.27
2019-05-21T23:51:54.536Z,100704.18
2019-05-21T23:54:24.602Z,100698.48
2019-05-21T23:56:55.645Z,100695.95
2019-05-21T23:59:26.207Z,100702.02
